CCA1013 ZUCK-ZSSS
Flight info
| Callsign | CCA1013 |
|---|---|
| Flight time | 1h 45m |
| Altitude | 35100 |
| Route | OLNER2X OLNER B213 WHA R343 SASAN SAS62A |
| Aircraft | A320/M-SDE3FGHIRWY/LB1 |
Departure
| Time | 2026-05-04 11:36 |
|---|---|
| Airport | Chongqing Jiangbei International Airport (ZUCK) |
Arrival
| Time | 2026-05-04 13:21 |
|---|---|
| Airport | Shanghai Hongqiao International Airport (ZSSS) |
| Time | Latitude | Longitude | Altitude | Speed | Heading |
|---|---|---|---|---|---|
| 2026-05-04 11:29 | 29.71963 | 106.65800 | 1343 ft | 15 kts | 106° |
| 2026-05-04 11:29 | 29.71931 | 106.65925 | 1337 ft | 18 kts | 106° |
| 2026-05-04 11:31 | 29.71616 | 106.65997 | 1337 ft | 6 kts | 195° |
| 2026-05-04 11:33 | 29.71479 | 106.66029 | 1337 ft | 0 kts | 107° |
| 2026-05-04 11:34 | 29.71474 | 106.66046 | 1337 ft | 5 kts | 107° |
| 2026-05-04 11:34 | 29.71463 | 106.66090 | 1337 ft | 7 kts | 107° |
| 2026-05-04 11:34 | 29.71462 | 106.66149 | 1341 ft | 8 kts | 51° |
| 2026-05-04 11:34 | 29.71513 | 106.66169 | 1337 ft | 4 kts | 16° |
| 2026-05-04 11:35 | 29.71519 | 106.66171 | 1337 ft | 0 kts | 16° |
| 2026-05-04 11:35 | 29.71520 | 106.66171 | 1337 ft | 1 kts | 16° |
| 2026-05-04 11:35 | 29.71634 | 106.66210 | 1336 ft | 48 kts | 17° |
| 2026-05-04 11:36 | 29.72178 | 106.66401 | 1330 ft | 113 kts | 17° |
| 2026-05-04 11:36 | 29.73108 | 106.66722 | 1327 ft | 163 kts | 17° |
| 2026-05-04 11:36 | 29.74215 | 106.67104 | 1844 ft | 164 kts | 18° |
| 2026-05-04 11:36 | 29.75332 | 106.67491 | 2367 ft | 170 kts | 19° |
| 2026-05-04 11:37 | 29.76469 | 106.67894 | 2940 ft | 171 kts | 24° |
| 2026-05-04 11:37 | 29.77517 | 106.68540 | 3448 ft | 171 kts | 33° |
| 2026-05-04 11:37 | 29.78530 | 106.69265 | 3898 ft | 173 kts | 35° |
| 2026-05-04 11:37 | 29.79538 | 106.70004 | 4376 ft | 175 kts | 35° |
| 2026-05-04 11:38 | 29.80607 | 106.70787 | 4669 ft | 193 kts | 34° |
| 2026-05-04 11:38 | 29.81807 | 106.71664 | 4857 ft | 216 kts | 34° |
| 2026-05-04 11:38 | 29.83148 | 106.72636 | 5030 ft | 241 kts | 33° |
| 2026-05-04 11:38 | 29.84617 | 106.73747 | 5299 ft | 264 kts | 40° |
| 2026-05-04 11:39 | 29.85889 | 106.75296 | 5737 ft | 278 kts | 57° |
| 2026-05-04 11:39 | 29.86758 | 106.77296 | 6495 ft | 281 kts | 73° |
| 2026-05-04 11:40 | 29.87830 | 106.91300 | 10520 ft | 323 kts | 85° |
| 2026-05-04 11:41 | 29.87994 | 106.93938 | 10732 ft | 344 kts | 85° |
| 2026-05-04 11:41 | 29.88165 | 106.96731 | 11262 ft | 353 kts | 85° |
| 2026-05-04 11:41 | 29.88341 | 106.99574 | 11906 ft | 358 kts | 85° |
| 2026-05-04 11:41 | 29.88518 | 107.02456 | 12573 ft | 363 kts | 84° |
| 2026-05-04 11:42 | 29.88698 | 107.05373 | 13223 ft | 367 kts | 84° |
| 2026-05-04 11:42 | 29.88876 | 107.08321 | 13886 ft | 371 kts | 84° |
| 2026-05-04 11:42 | 29.89054 | 107.11301 | 14465 ft | 375 kts | 84° |
| 2026-05-04 11:42 | 29.89233 | 107.14306 | 15034 ft | 378 kts | 84° |
| 2026-05-04 11:43 | 29.89410 | 107.17305 | 15597 ft | 382 kts | 84° |
| 2026-05-04 11:43 | 29.89592 | 107.20378 | 16152 ft | 386 kts | 84° |
| 2026-05-04 11:43 | 29.89774 | 107.23472 | 16701 ft | 390 kts | 84° |
| 2026-05-04 11:43 | 29.89961 | 107.26613 | 17267 ft | 394 kts | 84° |
| 2026-05-04 11:44 | 29.90150 | 107.29777 | 17824 ft | 398 kts | 84° |
| 2026-05-04 11:44 | 29.90340 | 107.32978 | 18370 ft | 402 kts | 84° |
| 2026-05-04 11:44 | 29.90526 | 107.36168 | 18843 ft | 405 kts | 84° |
| 2026-05-04 11:44 | 29.90715 | 107.39421 | 19325 ft | 409 kts | 84° |
| 2026-05-04 11:45 | 29.90904 | 107.42708 | 19789 ft | 413 kts | 84° |
| 2026-05-04 11:45 | 29.91095 | 107.46028 | 20260 ft | 417 kts | 84° |
| 2026-05-04 11:45 | 29.91285 | 107.49378 | 20752 ft | 420 kts | 84° |
| 2026-05-04 11:45 | 29.91477 | 107.52760 | 21228 ft | 424 kts | 84° |
| 2026-05-04 11:46 | 29.91671 | 107.56161 | 21699 ft | 428 kts | 84° |
| 2026-05-04 11:46 | 29.91863 | 107.59550 | 22155 ft | 431 kts | 83° |
| 2026-05-04 11:46 | 29.92057 | 107.63020 | 22621 ft | 435 kts | 83° |
| 2026-05-04 11:46 | 29.92252 | 107.66509 | 23051 ft | 438 kts | 84° |
| 2026-05-04 11:47 | 29.92449 | 107.70026 | 23469 ft | 441 kts | 83° |
| 2026-05-04 11:47 | 29.92646 | 107.73571 | 23837 ft | 445 kts | 83° |
| 2026-05-04 11:47 | 29.92842 | 107.77139 | 24180 ft | 448 kts | 84° |
| 2026-05-04 11:47 | 29.93065 | 107.80736 | 24515 ft | 450 kts | 80° |
| 2026-05-04 11:48 | 29.93647 | 107.84231 | 24834 ft | 450 kts | 71° |
| 2026-05-04 11:48 | 29.94527 | 107.87706 | 25136 ft | 453 kts | 70° |
| 2026-05-04 11:48 | 29.95417 | 107.91199 | 25453 ft | 456 kts | 70° |
| 2026-05-04 11:48 | 29.96314 | 107.94720 | 25773 ft | 459 kts | 70° |
| 2026-05-04 11:49 | 29.97211 | 107.98261 | 26092 ft | 462 kts | 70° |
| 2026-05-04 11:49 | 29.98109 | 108.01828 | 26395 ft | 465 kts | 70° |
| 2026-05-04 11:49 | 29.99010 | 108.05424 | 26688 ft | 468 kts | 70° |
| 2026-05-04 11:49 | 29.99916 | 108.09039 | 27001 ft | 471 kts | 70° |
| 2026-05-04 11:50 | 30.00830 | 108.12670 | 27284 ft | 473 kts | 70° |
| 2026-05-04 11:50 | 30.01738 | 108.16288 | 27569 ft | 476 kts | 70° |
| 2026-05-04 11:50 | 30.02660 | 108.19965 | 27853 ft | 479 kts | 70° |
| 2026-05-04 11:50 | 30.03589 | 108.23672 | 28126 ft | 482 kts | 70° |
| 2026-05-04 11:51 | 30.04522 | 108.27399 | 28415 ft | 484 kts | 70° |
| 2026-05-04 11:51 | 30.05459 | 108.31146 | 28661 ft | 488 kts | 70° |
| 2026-05-04 11:51 | 30.06400 | 108.34912 | 28891 ft | 490 kts | 70° |
| 2026-05-04 11:51 | 30.07345 | 108.38710 | 29129 ft | 493 kts | 70° |
| 2026-05-04 11:52 | 30.08290 | 108.42514 | 29403 ft | 495 kts | 70° |
| 2026-05-04 11:52 | 30.09228 | 108.46294 | 29597 ft | 499 kts | 70° |
| 2026-05-04 11:52 | 30.10186 | 108.50154 | 29794 ft | 502 kts | 70° |
| 2026-05-04 11:52 | 30.11146 | 108.54037 | 30026 ft | 504 kts | 70° |
| 2026-05-04 11:53 | 30.12122 | 108.57925 | 30236 ft | 506 kts | 69° |
| 2026-05-04 11:53 | 30.13183 | 108.61808 | 30410 ft | 507 kts | 68° |
| 2026-05-04 11:53 | 30.14316 | 108.65675 | 30593 ft | 509 kts | 67° |
| 2026-05-04 11:53 | 30.15490 | 108.69535 | 30765 ft | 510 kts | 66° |
| 2026-05-04 11:55 | 30.23373 | 108.96584 | 32550 ft | 510 kts | 69° |
| 2026-05-04 11:55 | 30.24355 | 109.00467 | 32777 ft | 511 kts | 70° |
| 2026-05-04 11:56 | 30.25299 | 109.04420 | 32996 ft | 511 kts | 71° |
| 2026-05-04 11:56 | 30.26226 | 109.08399 | 33249 ft | 512 kts | 71° |
| 2026-05-04 11:56 | 30.27154 | 109.12374 | 33491 ft | 512 kts | 71° |
| 2026-05-04 11:56 | 30.28099 | 109.16347 | 33689 ft | 513 kts | 71° |
| 2026-05-04 11:57 | 30.29063 | 109.20321 | 33915 ft | 513 kts | 70° |
| 2026-05-04 11:57 | 30.30040 | 109.24295 | 34120 ft | 514 kts | 70° |
| 2026-05-04 11:57 | 30.31020 | 109.28256 | 34305 ft | 514 kts | 70° |
| 2026-05-04 11:57 | 30.32005 | 109.32245 | 34486 ft | 515 kts | 70° |
| 2026-05-04 11:58 | 30.32983 | 109.36237 | 34698 ft | 515 kts | 70° |
| 2026-05-04 11:58 | 30.33951 | 109.40210 | 34969 ft | 513 kts | 70° |
| 2026-05-04 11:58 | 30.34919 | 109.44192 | 35114 ft | 513 kts | 70° |
| 2026-05-04 11:59 | 30.36844 | 109.52127 | 35150 ft | 512 kts | 70° |
| 2026-05-04 11:59 | 30.38745 | 109.60079 | 35152 ft | 513 kts | 73° |
| 2026-05-04 12:00 | 30.40014 | 109.68247 | 35151 ft | 515 kts | 77° |
| 2026-05-04 12:00 | 30.41211 | 109.76434 | 35153 ft | 516 kts | 77° |
| 2026-05-04 12:01 | 30.42427 | 109.84630 | 35138 ft | 517 kts | 77° |
| 2026-05-04 12:02 | 30.46606 | 110.13458 | 35166 ft | 519 kts | 78° |
| 2026-05-04 12:03 | 30.47794 | 110.21709 | 35187 ft | 518 kts | 78° |
| 2026-05-04 12:03 | 30.48977 | 110.29941 | 35171 ft | 517 kts | 78° |
| 2026-05-04 12:04 | 30.49953 | 110.36771 | 35169 ft | 516 kts | 78° |
| 2026-05-04 12:04 | 30.51312 | 110.46297 | 35159 ft | 516 kts | 78° |
| 2026-05-04 12:05 | 30.52469 | 110.54515 | 35145 ft | 516 kts | 78° |
| 2026-05-04 12:05 | 30.53619 | 110.62748 | 35128 ft | 517 kts | 78° |
| 2026-05-04 12:06 | 30.54764 | 110.70989 | 35128 ft | 518 kts | 78° |
| 2026-05-04 12:06 | 30.55921 | 110.79245 | 35121 ft | 518 kts | 78° |
| 2026-05-04 12:07 | 30.56878 | 110.86118 | 35122 ft | 519 kts | 79° |
| 2026-05-04 12:07 | 30.58017 | 110.94392 | 35118 ft | 520 kts | 79° |
| 2026-05-04 12:08 | 30.59151 | 111.02693 | 35129 ft | 520 kts | 79° |
| 2026-05-04 12:08 | 30.60273 | 111.10984 | 35137 ft | 520 kts | 79° |
| 2026-05-04 12:09 | 30.61402 | 111.19269 | 35128 ft | 519 kts | 79° |
| 2026-05-04 12:09 | 30.62525 | 111.27546 | 35121 ft | 519 kts | 79° |
| 2026-05-04 12:10 | 30.63638 | 111.35875 | 35121 ft | 519 kts | 79° |
| 2026-05-04 12:10 | 30.64738 | 111.44104 | 35115 ft | 519 kts | 79° |
| 2026-05-04 12:11 | 30.65473 | 111.52433 | 35114 ft | 519 kts | 85° |
| 2026-05-04 12:11 | 30.65904 | 111.60808 | 35121 ft | 519 kts | 85° |
| 2026-05-04 12:12 | 30.66327 | 111.69191 | 35122 ft | 519 kts | 85° |
| 2026-05-04 12:12 | 30.66751 | 111.77562 | 35121 ft | 519 kts | 85° |
| 2026-05-04 12:14 | 30.68676 | 112.11119 | 35135 ft | 520 kts | 84° |
| 2026-05-04 12:15 | 30.69290 | 112.19469 | 35130 ft | 519 kts | 84° |
| 2026-05-04 12:15 | 30.69857 | 112.27778 | 35124 ft | 519 kts | 84° |
| 2026-05-04 12:16 | 30.70406 | 112.36138 | 35122 ft | 519 kts | 85° |
| 2026-05-04 12:16 | 30.70953 | 112.44503 | 35119 ft | 519 kts | 85° |
| 2026-05-04 12:17 | 30.71496 | 112.52859 | 35105 ft | 519 kts | 85° |
| 2026-05-04 12:17 | 30.72031 | 112.61176 | 35102 ft | 520 kts | 85° |
| 2026-05-04 12:18 | 30.72569 | 112.69560 | 35100 ft | 520 kts | 85° |
| 2026-05-04 12:18 | 30.73102 | 112.77946 | 35104 ft | 521 kts | 85° |
| 2026-05-04 12:19 | 30.73633 | 112.86355 | 35087 ft | 522 kts | 85° |
| 2026-05-04 12:19 | 30.74153 | 112.94723 | 35092 ft | 523 kts | 85° |
| 2026-05-04 12:20 | 30.74671 | 113.03156 | 35096 ft | 523 kts | 85° |
| 2026-05-04 12:20 | 30.75176 | 113.11601 | 35125 ft | 523 kts | 85° |
| 2026-05-04 12:21 | 30.75594 | 113.20036 | 35122 ft | 522 kts | 88° |
| 2026-05-04 12:21 | 30.75787 | 113.28419 | 35120 ft | 522 kts | 89° |
| 2026-05-04 12:22 | 30.75920 | 113.36865 | 35117 ft | 522 kts | 89° |
| 2026-05-04 12:22 | 30.76103 | 113.45305 | 35111 ft | 522 kts | 88° |
| 2026-05-04 12:23 | 30.76322 | 113.53684 | 35104 ft | 523 kts | 88° |
| 2026-05-04 12:23 | 30.76544 | 113.62140 | 35103 ft | 523 kts | 88° |
| 2026-05-04 12:24 | 30.76740 | 113.70593 | 35101 ft | 523 kts | 89° |
| 2026-05-04 12:24 | 30.76918 | 113.79059 | 35089 ft | 524 kts | 89° |
| 2026-05-04 12:25 | 30.77093 | 113.87480 | 35091 ft | 525 kts | 89° |
| 2026-05-04 12:25 | 30.77272 | 113.95971 | 35105 ft | 526 kts | 89° |
| 2026-05-04 12:26 | 30.77461 | 114.04472 | 35116 ft | 526 kts | 88° |
| 2026-05-04 12:26 | 30.77798 | 114.12975 | 35120 ft | 527 kts | 87° |
| 2026-05-04 12:27 | 30.78742 | 114.21404 | 35119 ft | 525 kts | 73° |
| 2026-05-04 12:27 | 30.81191 | 114.29302 | 35150 ft | 522 kts | 66° |
| 2026-05-04 12:28 | 30.83763 | 114.37191 | 35144 ft | 522 kts | 67° |
| 2026-05-04 12:28 | 30.86273 | 114.45127 | 35107 ft | 522 kts | 67° |
| 2026-05-04 12:29 | 30.88818 | 114.53097 | 35107 ft | 530 kts | 66° |
| 2026-05-04 12:29 | 30.91440 | 114.61136 | 35106 ft | 538 kts | 66° |
| 2026-05-04 12:30 | 30.94122 | 114.69330 | 35111 ft | 544 kts | 66° |
| 2026-05-04 12:30 | 30.96780 | 114.77548 | 35116 ft | 546 kts | 67° |
| 2026-05-04 12:31 | 30.99438 | 114.85839 | 35113 ft | 546 kts | 67° |
| 2026-05-04 12:31 | 31.02096 | 114.94133 | 35113 ft | 546 kts | 67° |
| 2026-05-04 12:32 | 31.06076 | 115.06581 | 35107 ft | 547 kts | 67° |
| 2026-05-04 12:33 | 31.08715 | 115.14846 | 35111 ft | 547 kts | 67° |
| 2026-05-04 12:33 | 31.11359 | 115.23178 | 35150 ft | 548 kts | 68° |
| 2026-05-04 12:34 | 31.13990 | 115.31502 | 35151 ft | 546 kts | 67° |
| 2026-05-04 12:34 | 31.16653 | 115.39739 | 35151 ft | 546 kts | 66° |
| 2026-05-04 12:35 | 31.19359 | 115.48032 | 35151 ft | 546 kts | 66° |
| 2026-05-04 12:35 | 31.22051 | 115.56336 | 35151 ft | 547 kts | 67° |
| 2026-05-04 12:36 | 31.24719 | 115.64660 | 35157 ft | 547 kts | 67° |
| 2026-05-04 12:36 | 31.27363 | 115.72942 | 35153 ft | 547 kts | 67° |
| 2026-05-04 12:37 | 31.30028 | 115.81281 | 35144 ft | 547 kts | 67° |
| 2026-05-04 12:37 | 31.32699 | 115.89621 | 35152 ft | 548 kts | 66° |
| 2026-05-04 12:38 | 31.35403 | 115.97941 | 35134 ft | 548 kts | 66° |
| 2026-05-04 12:38 | 31.38137 | 116.06275 | 35131 ft | 549 kts | 66° |
| 2026-05-04 12:39 | 31.40860 | 116.14622 | 35148 ft | 549 kts | 66° |
| 2026-05-04 12:39 | 31.43543 | 116.22932 | 35152 ft | 549 kts | 66° |
| 2026-05-04 12:40 | 31.46240 | 116.31288 | 35137 ft | 548 kts | 66° |
| 2026-05-04 12:40 | 31.48936 | 116.39636 | 35123 ft | 549 kts | 66° |
| 2026-05-04 12:41 | 31.51627 | 116.48005 | 35121 ft | 549 kts | 66° |
| 2026-05-04 12:41 | 31.54308 | 116.56373 | 35114 ft | 549 kts | 66° |
| 2026-05-04 12:42 | 31.56988 | 116.64756 | 35135 ft | 549 kts | 66° |
| 2026-05-04 12:42 | 31.59657 | 116.73134 | 35127 ft | 548 kts | 67° |
| 2026-05-04 12:43 | 31.62315 | 116.81499 | 35125 ft | 548 kts | 67° |
| 2026-05-04 12:43 | 31.64960 | 116.89832 | 35106 ft | 548 kts | 67° |
| 2026-05-04 12:44 | 31.67609 | 116.98213 | 35106 ft | 548 kts | 67° |
| 2026-05-04 12:44 | 31.70243 | 117.06601 | 35148 ft | 548 kts | 67° |
| 2026-05-04 12:45 | 31.72842 | 117.15015 | 35143 ft | 547 kts | 68° |
| 2026-05-04 12:45 | 31.75419 | 117.23425 | 35127 ft | 547 kts | 68° |
| 2026-05-04 12:46 | 31.77070 | 117.32154 | 35123 ft | 550 kts | 86° |
| 2026-05-04 12:46 | 31.76753 | 117.41098 | 35131 ft | 550 kts | 96° |
| 2026-05-04 12:47 | 31.76132 | 117.50042 | 35120 ft | 550 kts | 96° |
| 2026-05-04 12:47 | 31.75510 | 117.59029 | 35113 ft | 551 kts | 96° |
| 2026-05-04 12:48 | 31.74878 | 117.68011 | 35118 ft | 552 kts | 96° |
| 2026-05-04 12:48 | 31.74232 | 117.76944 | 35134 ft | 552 kts | 96° |
| 2026-05-04 12:49 | 31.73587 | 117.85932 | 35138 ft | 552 kts | 96° |
| 2026-05-04 12:49 | 31.72942 | 117.94920 | 35136 ft | 552 kts | 96° |
| 2026-05-04 12:50 | 31.72296 | 118.03875 | 35138 ft | 549 kts | 96° |
| 2026-05-04 12:50 | 31.71634 | 118.12816 | 35140 ft | 550 kts | 96° |
| 2026-05-04 12:51 | 31.70999 | 118.21764 | 35151 ft | 551 kts | 95° |
| 2026-05-04 12:51 | 31.70387 | 118.30742 | 35144 ft | 551 kts | 95° |
| 2026-05-04 12:52 | 31.69764 | 118.39715 | 35140 ft | 552 kts | 96° |
| 2026-05-04 12:52 | 31.69120 | 118.48704 | 35151 ft | 552 kts | 96° |
| 2026-05-04 12:53 | 31.68474 | 118.57686 | 35162 ft | 553 kts | 96° |
| 2026-05-04 12:53 | 31.67829 | 118.66685 | 35151 ft | 553 kts | 96° |
| 2026-05-04 12:54 | 31.67163 | 118.75670 | 35163 ft | 554 kts | 96° |
| 2026-05-04 12:54 | 31.66825 | 118.80159 | 35048 ft | 550 kts | 96° |
| 2026-05-04 12:54 | 31.66490 | 118.84602 | 34691 ft | 539 kts | 96° |
| 2026-05-04 12:54 | 31.66169 | 118.88896 | 34351 ft | 530 kts | 96° |
| 2026-05-04 12:55 | 31.65848 | 118.93191 | 33998 ft | 527 kts | 96° |
| 2026-05-04 12:55 | 31.65526 | 118.97462 | 33592 ft | 526 kts | 96° |
| 2026-05-04 12:55 | 31.65201 | 119.01737 | 33201 ft | 525 kts | 96° |
| 2026-05-04 12:55 | 31.64884 | 119.06000 | 32790 ft | 524 kts | 96° |
| 2026-05-04 12:56 | 31.64618 | 119.10248 | 32272 ft | 520 kts | 95° |
| 2026-05-04 12:56 | 31.64404 | 119.14478 | 31771 ft | 516 kts | 94° |
| 2026-05-04 12:56 | 31.64230 | 119.18668 | 31278 ft | 513 kts | 94° |
| 2026-05-04 12:56 | 31.64082 | 119.22776 | 30804 ft | 509 kts | 94° |
| 2026-05-04 12:57 | 31.63930 | 119.26973 | 30316 ft | 507 kts | 95° |
| 2026-05-04 12:57 | 31.63767 | 119.31098 | 29785 ft | 505 kts | 95° |
| 2026-05-04 12:57 | 31.63586 | 119.35194 | 29268 ft | 500 kts | 95° |
| 2026-05-04 12:57 | 31.63391 | 119.39242 | 28734 ft | 494 kts | 95° |
| 2026-05-04 12:58 | 31.63191 | 119.43246 | 28196 ft | 489 kts | 94° |
| 2026-05-04 12:58 | 31.62997 | 119.47212 | 27673 ft | 484 kts | 94° |
| 2026-05-04 12:58 | 31.62809 | 119.51134 | 27163 ft | 479 kts | 94° |
| 2026-05-04 12:58 | 31.62628 | 119.55007 | 26654 ft | 473 kts | 94° |
| 2026-05-04 12:59 | 31.62445 | 119.58841 | 26244 ft | 466 kts | 94° |
| 2026-05-04 12:59 | 31.62264 | 119.62587 | 25989 ft | 456 kts | 94° |
| 2026-05-04 12:59 | 31.62086 | 119.66227 | 25624 ft | 450 kts | 94° |
| 2026-05-04 12:59 | 31.61908 | 119.69868 | 25234 ft | 444 kts | 93° |
| 2026-05-04 13:00 | 31.61738 | 119.73463 | 24846 ft | 439 kts | 93° |
| 2026-05-04 13:00 | 31.61575 | 119.77019 | 24463 ft | 434 kts | 92° |
| 2026-05-04 13:00 | 31.61417 | 119.80534 | 24085 ft | 429 kts | 92° |
| 2026-05-04 13:00 | 31.61260 | 119.84007 | 23712 ft | 424 kts | 92° |
| 2026-05-04 13:01 | 31.61102 | 119.87446 | 23270 ft | 420 kts | 92° |
| 2026-05-04 13:01 | 31.60942 | 119.90846 | 22807 ft | 416 kts | 92° |
| 2026-05-04 13:01 | 31.60785 | 119.94219 | 22350 ft | 412 kts | 92° |
| 2026-05-04 13:01 | 31.60627 | 119.97569 | 21899 ft | 409 kts | 92° |
| 2026-05-04 13:02 | 31.60466 | 120.00886 | 21454 ft | 406 kts | 92° |
| 2026-05-04 13:02 | 31.60305 | 120.04180 | 21014 ft | 403 kts | 92° |
| 2026-05-04 13:02 | 31.60149 | 120.07444 | 20586 ft | 400 kts | 92° |
| 2026-05-04 13:02 | 31.59995 | 120.10688 | 20158 ft | 397 kts | 92° |
| 2026-05-04 13:03 | 31.59840 | 120.13908 | 19713 ft | 394 kts | 93° |
| 2026-05-04 13:03 | 31.59681 | 120.17109 | 19295 ft | 392 kts | 93° |
| 2026-05-04 13:03 | 31.59525 | 120.20284 | 18895 ft | 389 kts | 93° |
| 2026-05-04 13:03 | 31.59369 | 120.23451 | 18498 ft | 387 kts | 93° |
| 2026-05-04 13:04 | 31.59211 | 120.26574 | 18076 ft | 384 kts | 93° |
| 2026-05-04 13:04 | 31.59052 | 120.29665 | 17388 ft | 377 kts | 94° |
| 2026-05-04 13:04 | 31.58660 | 120.32686 | 16649 ft | 371 kts | 104° |
| 2026-05-04 13:04 | 31.57876 | 120.35536 | 15940 ft | 365 kts | 109° |
| 2026-05-04 13:05 | 31.57041 | 120.38341 | 15472 ft | 363 kts | 109° |
| 2026-05-04 13:05 | 31.56213 | 120.41120 | 15122 ft | 359 kts | 109° |
| 2026-05-04 13:05 | 31.55394 | 120.43871 | 14753 ft | 357 kts | 109° |
| 2026-05-04 13:05 | 31.54579 | 120.46610 | 14390 ft | 354 kts | 109° |
| 2026-05-04 13:06 | 31.53780 | 120.49290 | 14035 ft | 351 kts | 109° |
| 2026-05-04 13:06 | 31.52968 | 120.52014 | 13648 ft | 348 kts | 108° |
| 2026-05-04 13:06 | 31.52184 | 120.54650 | 13234 ft | 346 kts | 108° |
| 2026-05-04 13:06 | 31.51395 | 120.57304 | 12820 ft | 344 kts | 108° |
| 2026-05-04 13:07 | 31.50604 | 120.59940 | 12400 ft | 342 kts | 108° |
| 2026-05-04 13:07 | 31.49817 | 120.62552 | 11988 ft | 340 kts | 108° |
| 2026-05-04 13:07 | 31.49033 | 120.65154 | 11579 ft | 337 kts | 108° |
| 2026-05-04 13:07 | 31.48254 | 120.67739 | 11174 ft | 335 kts | 108° |
| 2026-05-04 13:08 | 31.47482 | 120.70305 | 10781 ft | 333 kts | 108° |
| 2026-05-04 13:08 | 31.46713 | 120.72859 | 10381 ft | 331 kts | 107° |
| 2026-05-04 13:08 | 31.45956 | 120.75370 | 10219 ft | 321 kts | 107° |
| 2026-05-04 13:08 | 31.45223 | 120.77794 | 10090 ft | 310 kts | 107° |
| 2026-05-04 13:09 | 31.44511 | 120.80153 | 9818 ft | 305 kts | 107° |
| 2026-05-04 13:09 | 31.43809 | 120.82486 | 9452 ft | 303 kts | 107° |
| 2026-05-04 13:09 | 31.43109 | 120.84805 | 9082 ft | 301 kts | 108° |
| 2026-05-04 13:09 | 31.42414 | 120.87102 | 8709 ft | 298 kts | 108° |
| 2026-05-04 13:10 | 31.41959 | 120.88610 | 8461 ft | 297 kts | 108° |
| 2026-05-04 13:10 | 31.41042 | 120.91649 | 7958 ft | 294 kts | 108° |
| 2026-05-04 13:10 | 31.40534 | 120.93949 | 7586 ft | 291 kts | 95° |
| 2026-05-04 13:10 | 31.40485 | 120.95506 | 7335 ft | 288 kts | 84° |
| 2026-05-04 13:11 | 31.41065 | 120.98524 | 6761 ft | 281 kts | 68° |
| 2026-05-04 13:11 | 31.41495 | 120.99951 | 6308 ft | 281 kts | 69° |
| 2026-05-04 13:11 | 31.42142 | 121.02104 | 5625 ft | 279 kts | 70° |
| 2026-05-04 13:11 | 31.42785 | 121.04259 | 5201 ft | 279 kts | 70° |
| 2026-05-04 13:12 | 31.43422 | 121.06388 | 4795 ft | 278 kts | 71° |
| 2026-05-04 13:12 | 31.44060 | 121.08525 | 4375 ft | 277 kts | 71° |
| 2026-05-04 13:12 | 31.44686 | 121.10641 | 3970 ft | 274 kts | 74° |
| 2026-05-04 13:12 | 31.44998 | 121.13529 | 3582 ft | 264 kts | 93° |
| 2026-05-04 13:13 | 31.44988 | 121.14959 | 3493 ft | 256 kts | 92° |
| 2026-05-04 13:13 | 31.44987 | 121.17613 | 3328 ft | 240 kts | 92° |
| 2026-05-04 13:13 | 31.44990 | 121.18931 | 3232 ft | 234 kts | 92° |
| 2026-05-04 13:13 | 31.44994 | 121.20780 | 3062 ft | 226 kts | 92° |
| 2026-05-04 13:14 | 31.44997 | 121.22579 | 2997 ft | 214 kts | 92° |
| 2026-05-04 13:14 | 31.44998 | 121.24291 | 3001 ft | 208 kts | 92° |
| 2026-05-04 13:14 | 31.44998 | 121.25983 | 3015 ft | 204 kts | 92° |
| 2026-05-04 13:14 | 31.44998 | 121.27617 | 3023 ft | 199 kts | 92° |
| 2026-05-04 13:15 | 31.44837 | 121.29201 | 3001 ft | 194 kts | 110° |
| 2026-05-04 13:15 | 31.44247 | 121.30601 | 3004 ft | 191 kts | 130° |
| 2026-05-04 13:15 | 31.43312 | 121.31668 | 3011 ft | 186 kts | 149° |
| 2026-05-04 13:15 | 31.42150 | 121.32304 | 3007 ft | 183 kts | 167° |
| 2026-05-04 13:16 | 31.40902 | 121.32484 | 3007 ft | 178 kts | 179° |
| 2026-05-04 13:16 | 31.39742 | 121.32548 | 2994 ft | 157 kts | 179° |
| 2026-05-04 13:16 | 31.38692 | 121.32605 | 3004 ft | 145 kts | 180° |
| 2026-05-04 13:16 | 31.37691 | 121.32659 | 3012 ft | 142 kts | 180° |
| 2026-05-04 13:17 | 31.36712 | 121.32712 | 2924 ft | 140 kts | 180° |
| 2026-05-04 13:17 | 31.35743 | 121.32764 | 2790 ft | 139 kts | 180° |
| 2026-05-04 13:17 | 31.34775 | 121.32817 | 2623 ft | 139 kts | 179° |
| 2026-05-04 13:17 | 31.33898 | 121.32864 | 2462 ft | 138 kts | 179° |
| 2026-05-04 13:18 | 31.32906 | 121.32918 | 2279 ft | 137 kts | 179° |
| 2026-05-04 13:18 | 31.31969 | 121.32969 | 2098 ft | 135 kts | 180° |
| 2026-05-04 13:18 | 31.31031 | 121.33020 | 1922 ft | 134 kts | 180° |
| 2026-05-04 13:18 | 31.30097 | 121.33070 | 1742 ft | 134 kts | 180° |
| 2026-05-04 13:19 | 31.29168 | 121.33120 | 1565 ft | 134 kts | 180° |
| 2026-05-04 13:19 | 31.28238 | 121.33171 | 1390 ft | 134 kts | 179° |
| 2026-05-04 13:19 | 31.27322 | 121.33220 | 1210 ft | 133 kts | 179° |
| 2026-05-04 13:19 | 31.26400 | 121.33270 | 1035 ft | 133 kts | 179° |
| 2026-05-04 13:20 | 31.25479 | 121.33320 | 864 ft | 132 kts | 178° |
| 2026-05-04 13:20 | 31.24540 | 121.33371 | 690 ft | 135 kts | 177° |
| 2026-05-04 13:20 | 31.23610 | 121.33423 | 512 ft | 136 kts | 175° |
| 2026-05-04 13:20 | 31.22660 | 121.33472 | 325 ft | 138 kts | 176° |
| 2026-05-04 13:21 | 31.21705 | 121.33526 | 156 ft | 138 kts | 175° |
| 2026-05-04 13:21 | 31.20756 | 121.33572 | 22 ft | 130 kts | 177° |
| 2026-05-04 13:21 | 31.20019 | 121.33618 | 18 ft | 81 kts | 177° |
| 2026-05-04 13:21 | 31.19630 | 121.33638 | 20 ft | 30 kts | 178° |
| 2026-05-04 13:22 | 31.19467 | 121.33635 | 20 ft | 23 kts | 189° |
| 2026-05-04 13:22 | 31.19345 | 121.33595 | 19 ft | 15 kts | 203° |
| 2026-05-04 13:22 | 31.19259 | 121.33548 | 21 ft | 11 kts | 206° |
| 2026-05-04 13:22 | 31.19198 | 121.33515 | 19 ft | 9 kts | 204° |
| 2026-05-04 13:23 | 31.19146 | 121.33486 | 21 ft | 8 kts | 209° |
| 2026-05-04 13:23 | 31.19120 | 121.33441 | 19 ft | 6 kts | 259° |
| 2026-05-04 13:23 | 31.19118 | 121.33402 | 19 ft | 1 kts | 267° |
| 2026-05-04 13:23 | 31.19118 | 121.33401 | 19 ft | 0 kts | 267° |
| 2026-05-04 13:24 | 31.19117 | 121.33374 | 20 ft | 7 kts | 267° |
| 2026-05-04 13:25 | 31.19111 | 121.33225 | 18 ft | 8 kts | 267° |
| 2026-05-04 13:25 | 31.19109 | 121.33179 | 19 ft | 4 kts | 267° |
| 2026-05-04 13:25 | 31.19108 | 121.33153 | 19 ft | 3 kts | 267° |
| 2026-05-04 13:25 | 31.19107 | 121.33129 | 19 ft | 5 kts | 267° |
| 2026-05-04 13:26 | 31.19105 | 121.33066 | 19 ft | 8 kts | 267° |
| 2026-05-04 13:26 | 31.19102 | 121.33003 | 19 ft | 7 kts | 264° |
| 2026-05-04 13:26 | 31.19100 | 121.32950 | 19 ft | 6 kts | 267° |
| 2026-05-04 13:26 | 31.19098 | 121.32902 | 19 ft | 5 kts | 267° |
| 2026-05-04 13:27 | 31.19096 | 121.32857 | 19 ft | 5 kts | 268° |
| 2026-05-04 13:27 | 31.19094 | 121.32793 | 19 ft | 11 kts | 267° |
| 2026-05-04 13:27 | 31.19090 | 121.32696 | 19 ft | 11 kts | 267° |
| 2026-05-04 13:27 | 31.19090 | 121.32613 | 19 ft | 9 kts | 284° |
| 2026-05-04 13:28 | 31.19137 | 121.32582 | 19 ft | 7 kts | 350° |
| 2026-05-04 13:28 | 31.19184 | 121.32579 | 19 ft | 6 kts | 358° |
| 2026-05-04 13:28 | 31.19220 | 121.32594 | 19 ft | 5 kts | 41° |
| 2026-05-04 13:28 | 31.19232 | 121.32625 | 19 ft | 4 kts | 67° |
| 2026-05-04 13:29 | 31.19249 | 121.32640 | 19 ft | 2 kts | 20° |
| 2026-05-04 13:29 | 31.19262 | 121.32639 | 19 ft | 1 kts | 351° |
| 2026-05-04 13:29 | 31.19269 | 121.32637 | 19 ft | 1 kts | 349° |
| 2026-05-04 13:29 | 31.19274 | 121.32636 | 19 ft | 1 kts | 349° |
| 2026-05-04 13:30 | 31.19284 | 121.32634 | 19 ft | 2 kts | 351° |
| 2026-05-04 13:30 | 31.19300 | 121.32633 | 19 ft | 3 kts | 356° |
| 2026-05-04 13:30 | 31.19317 | 121.32631 | 19 ft | 2 kts | 357° |
| 2026-05-04 13:30 | 31.19325 | 121.32631 | 19 ft | 1 kts | 356° |
| 2026-05-04 13:31 | 31.19329 | 121.32631 | 19 ft | 0 kts | 356° |
| 2026-05-04 13:31 | 31.19332 | 121.32630 | 19 ft | 0 kts | 357° |